Time;durP1;ratioP1;P1;durP2;ratioP2;P2;SDS_P1;SDS_P2;PMS_P1;PMS_P2;Temp;Humidity;BMP_temperature;BMP_pressure;BME280_temperature;BME280_humidity;BME280_pressure;Samples;Min_cycle;Max_cycle;Signal;HPM_P1;HPM_P2
2022/06/28 00:02:05;;;;;;;10.47;5.47;;;;;;;22.79;51.56;100604.88;123629;1099;105539;-80
2022/06/28 00:04:44;;;;;;;11.55;5.05;;;;;;;22.78;51.94;100600.42;123594;1099;104312;-79
2022/06/28 00:07:17;;;;;;;11.13;5.53;;;;;;;22.80;52.37;100602.19;123573;1098;104370;-80
2022/06/28 00:10:03;;;;;;;12.13;5.77;;;;;;;22.84;51.94;100604.81;124017;1099;107013;-79
2022/06/28 00:12:39;;;;;;;10.13;5.30;;;;;;;22.86;52.29;100603.91;124020;1099;104284;-79
2022/06/28 00:18:02;;;;;;;10.93;5.50;;;;;;;22.87;51.99;100597.63;123591;1099;104208;-80
2022/06/28 00:20:34;;;;;;;11.57;5.80;;;;;;;22.88;52.23;100607.44;123660;1099;104229;-79
2022/06/28 00:23:05;;;;;;;11.43;5.73;;;;;;;22.87;52.41;100602.10;123606;1099;104364;-80
2022/06/28 00:25:37;;;;;;;11.80;5.70;;;;;;;22.87;52.36;100594.95;124073;1099;104325;-79
2022/06/28 00:28:09;;;;;;;9.30;5.97;;;;;;;22.87;52.57;100599.42;124030;1098;104213;-80
2022/06/28 00:30:40;;;;;;;12.05;5.05;;;;;;;22.84;52.89;100603.02;123944;1099;104261;-79
2022/06/28 00:33:12;;;;;;;12.13;5.50;;;;;;;22.85;52.50;100606.59;123557;1099;104249;-80
2022/06/28 00:35:44;;;;;;;10.07;5.00;;;;;;;22.84;52.44;100600.34;123565;1099;104364;-79
2022/06/28 00:38:17;;;;;;;10.17;5.57;;;;;;;22.83;53.16;100609.30;123683;1099;104262;-79
2022/06/28 00:40:50;;;;;;;11.70;5.67;;;;;;;22.79;53.24;100599.53;123311;1099;104366;-79
2022/06/28 00:43:22;;;;;;;;;;;;;;;22.75;52.29;100596.02;123578;1099;104345;-80
2022/06/28 00:45:53;;;;;;;14.23;5.90;;;;;;;22.68;53.23;100596.98;123314;1099;104261;-79
2022/06/28 00:48:27;;;;;;;14.23;5.83;;;;;;;22.57;53.21;100599.80;123307;1099;104776;-80
2022/06/28 00:50:59;;;;;;;11.17;5.10;;;;;;;22.47;53.37;100591.91;123601;1099;104320;-79
2022/06/28 00:53:30;;;;;;;10.33;5.43;;;;;;;22.37;53.60;100594.68;123596;1099;104264;-79
2022/06/28 00:56:02;;;;;;;9.37;5.20;;;;;;;22.29;53.84;100604.55;123573;1099;104351;-79
2022/06/28 00:58:33;;;;;;;11.07;5.50;;;;;;;22.20;54.50;100602.84;123688;1099;104290;-79
2022/06/28 01:01:05;;;;;;;13.43;5.67;;;;;;;22.12;54.82;100601.18;123545;1099;108123;-79
2022/06/28 01:03:37;;;;;;;12.60;5.53;;;;;;;22.04;55.23;100595.91;123563;1099;104268;-79
2022/06/28 01:06:09;;;;;;;14.47;5.73;;;;;;;21.97;54.79;100596.86;123603;1099;104354;-80
2022/06/28 01:08:41;;;;;;;13.03;5.70;;;;;;;21.90;55.07;100598.72;124039;1099;104249;-80
2022/06/28 01:11:22;;;;;;;11.93;5.40;;;;;;;21.87;55.02;100610.30;123604;1099;104238;-79
2022/06/28 01:13:59;;;;;;;12.23;5.73;;;;;;;21.82;56.10;100604.13;123533;1099;104364;-79
2022/06/28 01:16:33;;;;;;;13.87;5.40;;;;;;;21.77;56.16;100608.63;123537;1099;104453;-80
2022/06/28 01:19:17;;;;;;;11.20;5.80;;;;;;;21.73;56.01;100607.75;123570;1099;104379;-79
2022/06/28 01:21:52;;;;;;;12.30;5.40;;;;;;;21.71;55.13;100606.02;123271;1099;104313;-78
2022/06/28 01:24:24;;;;;;;14.47;5.83;;;;;;;21.70;55.85;100609.57;123311;1099;104342;-78
2022/06/28 01:27:07;;;;;;;11.30;5.43;;;;;;;21.68;55.28;100612.25;123367;1099;104367;-79
2022/06/28 01:29:39;;;;;;;10.15;5.62;;;;;;;21.67;56.36;100613.14;123562;1099;104245;-79
2022/06/28 01:32:22;;;;;;;12.67;5.73;;;;;;;21.64;55.47;100613.16;123476;1099;104341;-79
2022/06/28 01:34:53;;;;;;;12.95;5.50;;;;;;;21.62;56.27;100608.76;123628;1099;104264;-78
2022/06/28 01:37:27;;;;;;;14.03;5.40;;;;;;;21.57;56.20;100621.27;123602;1099;104255;-79
2022/06/28 01:39:59;;;;;;;11.53;5.83;;;;;;;21.53;56.30;100605.27;124080;1099;105764;-79
2022/06/28 01:42:32;;;;;;;10.50;5.03;;;;;;;21.50;56.56;100602.63;123383;1102;104366;-78
2022/06/28 01:45:04;;;;;;;11.13;5.53;;;;;;;21.49;56.19;100602.64;123595;1099;104245;-78
2022/06/28 01:47:44;;;;;;;13.30;5.70;;;;;;;21.47;56.73;100609.72;123570;1099;104718;-79
2022/06/28 01:50:36;;;;;;;10.93;5.40;;;;;;;21.45;57.11;100607.06;123571;1099;104447;-78
2022/06/28 01:53:08;;;;;;;9.90;5.60;;;;;;;21.41;56.55;100604.42;123566;1099;104296;-80
2022/06/28 01:55:57;;;;;;;15.47;6.37;;;;;;;21.37;56.51;100608.91;123600;1099;104267;-79
2022/06/28 01:58:44;;;;;;;10.07;5.20;;;;;;;21.32;57.39;100608.94;123599;1099;104286;-78
2022/06/28 02:01:16;;;;;;;11.83;5.40;;;;;;;21.28;57.56;100612.51;123439;1099;104322;-79
2022/06/28 02:03:49;;;;;;;10.17;5.40;;;;;;;21.27;57.32;100609.85;123722;1099;104348;-79
2022/06/28 02:06:30;;;;;;;10.85;5.50;;;;;;;21.23;57.06;100610.79;123665;1098;104370;-78
2022/06/28 02:09:05;;;;;;;10.37;5.20;;;;;;;21.21;57.79;100602.80;123577;1099;104287;-78
2022/06/28 02:11:46;;;;;;;8.60;4.65;;;;;;;21.19;58.14;100607.23;123551;1099;104252;-79
2022/06/28 02:14:19;;;;;;;14.15;5.60;;;;;;;21.17;57.62;100604.57;123607;1099;104251;-78
2022/06/28 02:16:50;;;;;;;9.13;5.43;;;;;;;21.15;58.12;100598.37;123571;1099;104406;-79
2022/06/28 02:19:22;;;;;;;10.85;5.80;;;;;;;21.11;58.45;100601.94;123522;1098;104319;-79
2022/06/28 02:21:54;;;;;;;9.50;5.70;;;;;;;21.08;58.46;100598.41;123640;1098;104284;-79
2022/06/28 02:24:28;;;;;;;10.15;5.40;;;;;;;21.05;58.26;100598.44;123504;1099;104319;-79
2022/06/28 02:26:59;;;;;;;10.00;5.70;;;;;;;21.02;58.87;100596.69;123601;1099;104422;-79
2022/06/28 02:29:30;;;;;;;12.55;5.90;;;;;;;21.01;59.32;100595.78;123590;1099;104302;-79
2022/06/28 02:32:02;;;;;;;11.60;5.73;;;;;;;20.98;59.40;100594.92;123580;1099;104395;-78
2022/06/28 02:40:25;;;;;;;10.27;5.40;;;;;;;20.92;59.36;100594.95;123895;1099;104336;-79
2022/06/28 02:42:58;;;;;;;15.13;6.60;;;;;;;20.89;59.46;100590.52;123515;1099;104441;-79
2022/06/28 02:45:32;;;;;;;12.53;5.78;;;;;;;20.89;59.27;100597.64;123567;1098;104782;-79
2022/06/28 02:48:04;;;;;;;12.03;5.37;;;;;;;20.90;59.71;100596.76;123696;1099;104239;-78
2022/06/28 02:50:36;;;;;;;8.37;4.77;;;;;;;20.91;59.38;100594.08;123752;1099;104296;-79
2022/06/28 02:53:08;;;;;;;12.77;5.70;;;;;;;20.93;59.53;100597.61;123666;1099;104246;-78
2022/06/28 02:55:39;;;;;;;10.87;5.43;;;;;;;20.94;60.06;100595.83;123313;1099;104367;-79
2022/06/28 02:58:11;;;;;;;15.30;5.53;;;;;;;20.96;59.78;100592.27;123895;1099;104272;-78
2022/06/28 03:00:43;;;;;;;15.73;5.60;;;;;;;20.96;60.35;100594.93;123471;1099;104628;-79
2022/06/28 03:03:16;;;;;;;13.23;5.90;;;;;;;20.97;60.48;100590.47;123556;1099;104727;-79
2022/06/28 03:05:47;;;;;;;14.30;5.80;;;;;;;20.97;59.42;100588.72;123665;1099;104293;-80
2022/06/28 03:08:22;;;;;;;11.43;5.90;;;;;;;20.98;59.72;100585.13;123655;1099;104351;-78
2022/06/28 03:10:53;;;;;;;11.97;5.43;;;;;;;21.00;59.81;100590.45;123511;1099;104245;-78
2022/06/28 03:13:25;;;;;;;11.07;5.60;;;;;;;21.03;59.30;100592.23;123590;1099;104274;-79
2022/06/28 03:15:56;;;;;;;13.23;5.83;;;;;;;21.04;60.37;100584.22;123306;1099;104358;-78
2022/06/28 03:18:27;;;;;;;12.17;5.57;;;;;;;21.05;60.16;100590.43;123665;1099;104283;-79
2022/06/28 03:20:59;;;;;;;11.70;5.90;;;;;;;21.06;59.70;100597.55;123688;1099;104271;-78
2022/06/28 03:23:30;;;;;;;10.47;5.60;;;;;;;21.07;60.48;100599.33;123511;1099;104277;-79
2022/06/28 03:26:02;;;;;;;11.30;5.77;;;;;;;21.11;60.30;100604.61;123580;1099;104251;-79
2022/06/28 03:28:33;;;;;;;11.97;5.67;;;;;;;21.13;59.77;100608.17;123624;1099;104823;-79
2022/06/28 03:31:06;;;;;;;12.03;5.60;;;;;;;21.16;60.36;100602.82;123522;1099;104284;-79
2022/06/28 03:33:38;;;;;;;11.30;5.50;;;;;;;21.19;60.00;100597.47;123733;1099;104271;-79
2022/06/28 03:36:10;;;;;;;11.87;5.63;;;;;;;21.24;60.77;100599.20;123283;1099;104271;-79
2022/06/28 03:38:44;;;;;;;15.07;5.47;;;;;;;21.28;59.66;100608.97;123312;1099;104272;-78
2022/06/28 03:41:24;;;;;;;12.70;5.57;;;;;;;21.30;61.11;100607.16;123328;1099;104469;-78
2022/06/28 03:44:03;;;;;;;13.70;5.87;;;;;;;21.33;60.06;100608.05;123566;1099;104638;-79
2022/06/28 03:46:35;;;;;;;10.38;6.25;;;;;;;21.34;60.68;100606.26;123692;1099;104242;-79
2022/06/28 03:49:32;;;;;;;11.10;5.97;;;;;;;21.35;60.89;100610.71;123598;1099;104238;-79
2022/06/28 03:52:16;;;;;;;12.30;6.10;;;;;;;21.39;60.48;100606.23;123624;1099;104377;-78
2022/06/28 03:55:03;;;;;;;15.57;5.90;;;;;;;21.42;60.42;100611.55;123544;1099;110603;-79
2022/06/28 03:57:41;;;;;;;15.40;5.90;;;;;;;21.46;60.27;100608.84;123720;1099;104245;-78
2022/06/28 04:00:15;;;;;;;11.93;5.97;;;;;;;21.50;61.12;100617.73;123545;1099;104300;-78
2022/06/28 04:02:48;;;;;;;10.17;5.50;;;;;;;21.54;60.86;100607.02;123679;1099;104373;-78
2022/06/28 04:05:25;;;;;;;13.80;5.83;;;;;;;21.62;60.60;100612.30;123687;1099;104252;-78
2022/06/28 04:07:56;;;;;;;13.80;6.00;;;;;;;21.67;60.71;100613.14;123642;1099;104370;-78
2022/06/28 04:10:38;;;;;;;13.87;5.77;;;;;;;21.74;60.37;100619.34;123353;1099;104319;-78
2022/06/28 04:13:15;;;;;;;13.83;5.67;;;;;;;21.80;60.51;100611.28;123418;1099;104326;-78
2022/06/28 04:16:06;;;;;;;14.30;6.10;;;;;;;21.87;60.50;100610.30;123870;1099;104489;-77
2022/06/28 04:18:43;;;;;;;14.40;5.80;;;;;;;21.95;59.91;100612.03;123908;1099;104321;-78
2022/06/28 04:21:17;;;;;;;11.73;5.73;;;;;;;22.02;60.05;100608.41;123670;1099;104304;-78
2022/06/28 04:23:49;;;;;;;13.27;5.50;;;;;;;22.10;59.70;100603.86;123826;1099;104245;-77
2022/06/28 04:26:21;;;;;;;14.30;5.60;;;;;;;22.15;60.44;100601.15;123838;1099;104361;-78
2022/06/28 04:28:52;;;;;;;10.17;5.30;;;;;;;22.21;60.25;100603.75;123674;1099;104261;-78
2022/06/28 04:31:27;;;;;;;12.07;5.83;;;;;;;22.26;59.70;100608.12;123911;1099;104684;-77
2022/06/28 04:33:58;;;;;;;15.50;5.90;;;;;;;22.33;59.40;100606.33;123730;1099;104650;-78
2022/06/28 04:36:32;;;;;;;12.90;5.27;;;;;;;22.39;59.21;100606.27;123580;1099;104261;-78
2022/06/28 04:39:04;;;;;;;14.57;5.93;;;;;;;22.47;59.14;100607.95;123509;1098;104695;-77
2022/06/28 04:41:40;;;;;;;10.27;4.97;;;;;;;22.53;59.24;100611.45;123584;1099;104370;-77
2022/06/28 04:44:21;;;;;;;11.47;5.23;;;;;;;22.61;58.75;100620.27;123716;1099;104431;-79
2022/06/28 04:46:57;;;;;;;12.45;5.45;;;;;;;22.69;58.83;100616.58;123758;1099;104165;-77
2022/06/28 04:49:29;;;;;;;12.87;5.30;;;;;;;22.75;58.69;100613.83;124082;1099;104264;-77
2022/06/28 04:52:30;;;;;;;13.93;5.92;;;;;;;22.82;58.51;100618.21;123898;1099;104384;-79
2022/06/28 04:55:02;;;;;;;17.50;5.97;;;;;;;22.92;58.33;100621.64;124009;1099;104258;-78
2022/06/28 04:57:48;;;;;;;14.40;5.90;;;;;;;22.98;58.39;100618.89;123785;1099;104236;-77
2022/06/28 05:00:23;;;;;;;12.40;6.10;;;;;;;23.04;58.45;100617.93;115644;1099;10000999;-78
2022/06/28 05:03:01;;;;;;;11.80;5.77;;;;;;;23.10;57.93;100615.20;123910;1099;102955;-79
2022/06/28 05:05:56;;;;;;;13.53;5.50;;;;;;;23.14;58.21;100622.30;124260;1098;104269;-78
2022/06/28 05:08:30;;;;;;;11.93;5.55;;;;;;;23.18;58.17;100621.32;124286;1099;104645;-79
2022/06/28 05:11:06;;;;;;;14.23;5.80;;;;;;;23.25;57.61;100627.46;124063;1099;104265;-78
2022/06/28 05:13:43;;;;;;;12.57;5.40;;;;;;;23.30;57.99;100615.79;124451;1099;104313;-80
2022/06/28 05:16:19;;;;;;;15.73;5.87;;;;;;;23.38;57.44;100622.83;124022;1099;104221;-79
2022/06/28 05:18:52;;;;;;;12.57;5.80;;;;;;;23.43;57.60;100618.28;124552;1099;104347;-79
2022/06/28 05:21:31;;;;;;;13.70;5.47;;;;;;;23.51;57.41;100617.27;124047;1099;104745;-78
2022/06/28 05:24:05;;;;;;;14.17;5.23;;;;;;;23.58;57.00;100612.69;124535;1099;104173;-79
2022/06/28 05:26:49;;;;;;;12.60;5.53;;;;;;;23.67;56.89;100611.66;124460;1100;104310;-79
2022/06/28 05:29:24;;;;;;;11.67;5.20;;;;;;;23.76;56.88;100608.80;124573;1099;104335;-79
2022/06/28 05:31:56;;;;;;;19.00;6.20;;;;;;;23.82;57.42;100606.02;126545;1098;103110;-78
2022/06/28 05:34:30;;;;;;;16.20;6.03;;;;;;;23.91;56.50;100607.69;124686;1099;104347;-78
2022/06/28 05:37:01;;;;;;;;;;;;;;;23.98;56.67;100608.45;124436;1099;110607;-79
2022/06/28 05:39:37;;;;;;;14.40;5.67;;;;;;;24.02;56.20;100603.02;124960;1099;104236;-78
2022/06/28 05:42:23;;;;;;;13.80;5.80;;;;;;;24.11;56.56;100609.14;124516;1099;104345;-79
2022/06/28 05:44:54;;;;;;;15.10;5.37;;;;;;;24.18;56.54;100606.32;125028;1099;104290;-78
2022/06/28 05:47:28;;;;;;;10.17;4.67;;;;;;;24.26;55.41;100603.45;125013;1099;104420;-81
2022/06/28 05:50:02;;;;;;;11.77;4.60;;;;;;;24.36;55.07;100601.50;124566;1099;104192;-80
2022/06/28 05:52:34;;;;;;;13.53;5.23;;;;;;;24.47;54.88;100601.30;124515;1102;104267;-79
2022/06/28 05:55:08;;;;;;;16.37;5.23;;;;;;;24.60;54.41;100604.63;124488;1102;104055;-81
2022/06/28 05:57:51;;;;;;;20.97;5.10;;;;;;;24.72;54.16;100604.38;124322;1100;110053;-80
2022/06/28 06:00:34;;;;;;;8.20;4.23;;;;;;;24.80;53.99;100609.59;125308;1099;102825;-82
2022/06/28 06:03:22;;;;;;;9.20;4.67;;;;;;;24.88;53.84;100603.11;124663;1099;104351;-80
2022/06/28 06:05:56;;;;;;;11.50;4.27;;;;;;;24.98;53.34;100603.82;124436;1102;104270;-80
2022/06/28 06:09:03;;;;;;;10.60;4.40;;;;;;;25.05;53.18;100605.42;124534;1102;102675;-80
2022/06/28 06:11:52;;;;;;;10.43;4.30;;;;;;;25.14;52.15;100598.98;125350;1102;103775;-80
2022/06/28 06:14:28;;;;;;;9.20;4.77;;;;;;;25.24;51.49;100605.91;125397;1102;104069;-78
2022/06/28 06:17:03;;;;;;;13.13;4.40;;;;;;;25.33;50.57;100604.83;124365;1102;104417;-80
2022/06/28 06:19:45;;;;;;;10.53;4.28;;;;;;;25.44;50.20;100599.20;124398;1102;105594;-80
2022/06/28 06:22:20;;;;;;;6.27;4.43;;;;;;;25.57;49.82;100597.08;125264;1101;104121;-79
2022/06/28 06:24:53;;;;;;;11.00;3.93;;;;;;;25.67;50.17;100598.63;125311;1102;104188;-81
2022/06/28 06:27:36;;;;;;;9.80;4.50;;;;;;;25.72;49.65;100588.64;125210;1102;103473;-80
2022/06/28 06:30:15;;;;;;;9.43;4.00;;;;;;;25.75;48.88;100595.75;125134;1102;102303;-81
2022/06/28 06:33:09;;;;;;;7.47;3.90;;;;;;;25.84;48.58;100590.14;124093;1102;103376;-79
2022/06/28 06:39:25;;;;;;;8.83;4.00;;;;;;;26.04;47.49;100586.05;124284;1102;107404;-79
2022/06/28 06:41:59;;;;;;;6.80;3.80;;;;;;;26.12;47.34;100582.24;123987;1102;104248;-79
2022/06/28 06:44:44;;;;;;;9.90;4.20;;;;;;;26.29;47.51;100586.28;124091;1102;104210;-80
2022/06/28 06:47:50;;;;;;;11.80;3.90;;;;;;;26.44;46.80;100577.75;124675;1102;104227;-81
2022/06/28 06:50:36;;;;;;;8.30;3.80;;;;;;;26.60;46.34;100575.52;124318;1102;103230;-84
2022/06/28 06:53:11;;;;;;;9.30;3.87;;;;;;;26.70;46.04;100581.53;124320;1102;104223;-79
2022/06/28 06:55:50;;;;;;;8.50;4.00;;;;;;;26.78;46.51;100584.86;124341;1102;104269;-79
2022/06/28 06:58:28;;;;;;;7.22;3.80;;;;;;;26.89;46.76;100582.72;121356;1099;10000975;-80
2022/06/28 07:01:01;;;;;;;8.00;3.80;;;;;;;26.99;44.65;100582.44;124252;1099;104355;-79
2022/06/28 07:03:44;;;;;;;9.43;4.63;;;;;;;27.09;45.00;100579.41;124383;1102;104268;-76
2022/06/28 07:06:24;;;;;;;7.47;4.30;;;;;;;27.29;43.78;100590.50;124512;1102;103832;-76
2022/06/28 07:08:57;;;;;;;8.37;3.80;;;;;;;27.46;43.15;100588.16;124362;1102;104227;-80
2022/06/28 07:11:30;;;;;;;10.60;3.73;;;;;;;27.58;43.26;100597.63;124412;1102;104150;-76
2022/06/28 07:14:02;;;;;;;6.20;3.75;;;;;;;27.67;42.93;100600.02;124546;1102;102880;-80
2022/06/28 07:16:34;;;;;;;6.77;3.90;;;;;;;27.74;43.10;100598.89;124553;1102;103988;-79
2022/06/28 07:19:10;;;;;;;11.35;4.10;;;;;;;27.93;42.54;100590.17;124344;1102;104408;-77
2022/06/28 07:21:55;;;;;;;9.63;3.83;;;;;;;28.11;42.94;100591.34;124366;1102;104165;-78
2022/06/28 07:24:37;;;;;;;7.10;3.60;;;;;;;28.27;41.72;100587.17;124247;1102;104239;-78
2022/06/28 07:27:14;;;;;;;7.60;3.37;;;;;;;28.31;40.58;100588.84;124311;1102;104502;-77
2022/06/28 07:29:48;;;;;;;3.47;3.17;;;;;;;28.39;36.60;100585.86;124513;1101;104185;-78
2022/06/28 07:32:43;;;;;;;9.00;3.10;;;;;;;28.48;39.63;100581.91;124493;1102;104434;-79
2022/06/28 07:35:18;;;;;;;7.10;3.63;;;;;;;28.53;39.33;100581.73;124255;1103;103373;-78
2022/06/28 07:37:52;;;;;;;8.40;3.63;;;;;;;28.59;39.30;100585.11;124493;1102;104124;-77
2022/06/28 07:40:36;;;;;;;9.20;3.60;;;;;;;28.75;39.26;100574.62;124675;1102;102368;-78
2022/06/28 07:43:36;;;;;;;8.83;4.00;;;;;;;28.98;39.72;100575.53;124183;1099;104175;-77
2022/06/28 07:46:13;;;;;;;55.40;10.27;;;;;;;29.35;37.15;100582.19;124212;1102;104252;-77
2022/06/28 07:48:51;;;;;;;19.07;5.83;;;;;;;29.54;37.89;100577.75;124372;1102;104441;-80
2022/06/28 07:54:28;;;;;;;;;;;;;;;;;;;;;
2022/06/28 07:57:13;;;;;;;9.67;3.50;;;;;;;30.09;36.86;100574.53;124574;1102;104421;-80
2022/06/28 08:00:09;;;;;;;15.27;3.90;;;;;;;30.21;36.11;100572.22;124543;1099;104265;-79
2022/06/28 08:03:09;;;;;;;;;;;;;;;;;;;;;
2022/06/28 08:05:54;;;;;;;4.80;2.70;;;;;;;30.34;33.66;100568.02;124206;1102;104661;-81
2022/06/28 08:08:41;;;;;;;8.67;2.63;;;;;;;30.31;34.59;100551.92;125290;1102;104248;-83
2022/06/28 08:11:19;;;;;;;8.77;3.10;;;;;;;30.54;34.16;100563.53;124033;1105;104233;-79
2022/06/28 08:13:56;;;;;;;8.60;3.00;;;;;;;30.65;34.32;100562.09;124053;1106;104185;-79
2022/06/28 08:16:46;;;;;;;5.33;2.80;;;;;;;30.71;34.05;100555.48;124179;1102;104171;-81
2022/06/28 08:19:21;;;;;;;7.80;3.40;;;;;;;30.87;34.45;100558.36;124059;1105;104357;-79
2022/06/28 08:21:56;;;;;;;6.37;3.13;;;;;;;31.08;33.92;100558.30;124208;1105;103671;-79
2022/06/28 08:24:37;;;;;;;4.10;3.10;;;;;;;31.17;33.95;100561.42;123945;1105;104332;-78
2022/06/28 08:27:09;;;;;;;3.63;3.00;;;;;;;31.24;32.89;100563.83;124273;1105;102791;-77
2022/06/28 08:29:43;;;;;;;5.78;3.33;;;;;;;31.29;32.93;100559.05;124166;1105;104444;-80
2022/06/28 08:32:33;;;;;;;5.10;3.00;;;;;;;31.46;33.02;100553.68;124912;1105;103187;-79
2022/06/28 08:35:20;;;;;;;4.10;3.40;;;;;;;31.62;32.34;100540.23;124773;1105;102261;-78
2022/06/28 08:37:57;;;;;;;9.75;3.20;;;;;;;31.59;31.94;100551.25;123784;1105;104294;-77
2022/06/28 08:40:36;;;;;;;4.60;2.80;;;;;;;31.51;32.10;100557.03;124186;1105;104412;-77
2022/06/28 08:43:31;;;;;;;3.87;3.20;;;;;;;31.45;31.79;100551.91;124057;1102;104380;-79
2022/06/28 08:46:38;;;;;;;3.13;2.73;;;;;;;31.51;32.04;100554.31;124119;1102;104387;-79
2022/06/28 08:49:55;;;;;;;7.27;2.87;;;;;;;31.52;32.06;100563.31;124235;1102;104438;-78
2022/06/28 08:52:50;;;;;;;7.45;3.15;;;;;;;31.58;31.47;100564.88;124430;1102;104242;-79
2022/06/28 08:56:05;;;;;;;7.17;3.07;;;;;;;31.70;31.82;100550.69;124342;1101;104360;-77
2022/06/28 08:58:50;;;;;;;5.35;3.15;;;;;;;31.78;31.69;100544.88;124302;1102;104345;-80
2022/06/28 09:04:33;;;;;;;7.10;2.80;;;;;;;31.93;31.31;100540.45;124608;1099;104344;-80
2022/06/28 09:07:59;;;;;;;4.83;3.33;;;;;;;32.10;31.16;100543.20;126740;1098;102955;-80
2022/06/28 09:10:37;;;;;;;5.60;2.97;;;;;;;32.21;31.00;100535.34;125810;1099;102384;-78
2022/06/28 09:13:11;;;;;;;6.65;3.10;;;;;;;32.22;30.98;100533.50;124920;1099;104251;-79
2022/06/28 09:16:13;;;;;;;6.00;3.00;;;;;;;32.27;30.93;100538.68;124894;1099;104309;-81
2022/06/28 09:19:16;;;;;;;5.77;3.13;;;;;;;32.34;31.39;100531.97;124946;1099;104255;-81
2022/06/28 09:22:00;;;;;;;;;;;;;;;32.08;29.12;100528.78;125959;1099;102972;-83
2022/06/28 09:25:24;;;;;;;5.80;3.27;;;;;;;32.08;30.54;100532.40;124933;1099;104402;-79
2022/06/28 09:28:38;;;;;;;7.07;3.20;;;;;;;32.18;30.45;100530.09;125635;1099;104241;-80
2022/06/28 09:31:31;;;;;;;6.27;3.03;;;;;;;32.21;30.50;100524.49;124910;1098;104166;-79
2022/06/28 09:34:37;;;;;;;4.70;3.03;;;;;;;32.23;29.55;100517.12;124771;1099;104312;-80
2022/06/28 09:37:54;;;;;;;3.10;2.80;;;;;;;32.02;29.82;100501.98;124757;1099;104570;-80
2022/06/28 09:48:09;;;;;;;5.07;3.00;;;;;;;32.23;29.19;100499.98;125247;1102;104390;-78
2022/06/28 09:50:51;;;;;;;4.40;2.73;;;;;;;32.18;28.62;100510.19;124258;1102;102591;-79
2022/06/28 09:53:44;;;;;;;;;;;;;;;;;;;;;
2022/06/28 09:57:00;;;;;;;;;;;;;;;;;;;;;
2022/06/28 10:00:24;;;;;;;7.40;3.07;;;;;;;32.24;28.01;100497.17;125062;1105;104028;-79
2022/06/28 10:03:26;;;;;;;4.90;2.67;;;;;;;32.30;28.18;100501.37;125614;1105;103317;-82
2022/06/28 10:06:01;;;;;;;;;;;;;;;32.26;27.18;100499.81;125990;1105;102695;-79
2022/06/28 10:08:34;;;;;;;6.50;2.93;;;;;;;32.20;27.10;100509.16;125912;1105;103327;-79
2022/06/28 10:11:11;;;;;;;5.00;3.10;;;;;;;32.18;27.29;100504.76;125859;1102;103376;-79
2022/06/28 10:16:54;;;;;;;3.83;2.60;;;;;;;32.11;26.99;100487.94;126164;1101;102466;-81
2022/06/28 10:19:31;;;;;;;5.10;2.73;;;;;;;32.18;27.20;100486.66;126157;1102;101975;-79
2022/06/28 10:22:16;;;;;;;9.90;2.70;;;;;;;32.22;27.19;100488.22;125912;1104;103952;-82
2022/06/28 10:24:57;;;;;;;5.50;2.90;;;;;;;32.21;27.05;100491.92;126044;1102;102605;-79
2022/06/28 10:27:30;;;;;;;;;;;;;;;32.15;26.53;100491.35;126131;1102;102072;-77
2022/06/28 10:30:31;;;;;;;4.57;3.00;;;;;;;32.23;26.88;100486.41;125200;1102;104242;-80
2022/06/28 10:33:13;;;;;;;3.60;2.53;;;;;;;32.33;27.01;100473.19;126218;1099;102038;-79
2022/06/28 10:35:59;;;;;;;6.53;2.87;;;;;;;32.36;26.86;100470.30;126153;1102;118220;-78
2022/06/28 10:38:34;;;;;;;5.87;2.67;;;;;;;32.30;26.38;100467.93;125156;1102;104185;-79
2022/06/28 10:41:19;;;;;;;9.55;3.40;;;;;;;32.25;26.14;100477.19;124428;1102;104351;-79
2022/06/28 10:44:10;;;;;;;3.43;2.80;;;;;;;32.24;26.03;100470.03;124456;1102;104178;-82
2022/06/28 10:46:49;;;;;;;5.87;2.93;;;;;;;32.33;26.14;100467.76;124353;1102;104355;-80
2022/06/28 10:49:26;;;;;;;4.40;2.90;;;;;;;32.38;26.08;100466.55;124268;1102;104479;-81
2022/06/28 10:52:22;;;;;;;7.70;3.00;;;;;;;32.43;25.68;100463.58;124399;1099;104328;-79
2022/06/28 10:55:25;;;;;;;4.27;2.90;;;;;;;32.54;25.72;100458.41;124845;1102;104347;-80
2022/06/28 10:58:29;;;;;;;6.60;3.00;;;;;;;32.60;25.66;100466.20;125359;1099;104213;-81
2022/06/28 11:01:05;;;;;;;8.37;3.10;;;;;;;32.66;26.05;100450.55;124660;1099;102254;-81
2022/06/28 11:04:18;;;;;;;4.50;2.77;;;;;;;32.61;25.54;100448.95;124702;1102;103967;-81
2022/06/28 11:07:31;;;;;;;3.80;2.80;;;;;;;32.57;24.92;100444.66;124742;1099;109933;-84
2022/06/28 11:10:47;;;;;;;5.83;2.80;;;;;;;32.54;25.09;100447.55;125683;1099;103037;-81
2022/06/28 11:13:33;;;;;;;7.13;3.70;;;;;;;32.56;25.36;100445.61;124806;1099;104185;-83
2022/06/28 11:16:52;;;;;;;6.77;3.27;;;;;;;32.55;25.14;100440.27;125472;1099;104222;-78
2022/06/28 11:19:27;;;;;;;12.43;3.50;;;;;;;32.66;25.43;100442.39;125147;1099;104262;-80
2022/06/28 11:22:10;;;;;;;7.10;2.90;;;;;;;32.74;24.92;100434.67;125155;1099;104249;-79
2022/06/28 11:25:06;;;;;;;9.40;2.90;;;;;;;32.77;24.48;100437.20;124912;1099;102681;-80
2022/06/28 11:28:03;;;;;;;5.33;2.80;;;;;;;32.83;23.76;100430.55;125697;1099;111279;-80
2022/06/28 11:30:50;;;;;;;4.70;2.87;;;;;;;32.71;23.55;100429.41;125096;1099;102394;-79
2022/06/28 11:33:53;;;;;;;5.83;2.70;;;;;;;32.75;23.46;100439.15;125043;1099;103317;-80
2022/06/28 11:37:19;;;;;;;6.67;2.70;;;;;;;32.72;22.95;100432.04;124276;1102;104204;-80
2022/06/28 11:39:58;;;;;;;4.03;2.63;;;;;;;32.84;23.17;100427.75;124620;1102;103428;-79
2022/06/28 11:43:10;;;;;;;4.60;2.70;;;;;;;32.90;22.59;100431.95;125181;1102;104227;-79
2022/06/28 11:48:49;;;;;;;5.40;2.70;;;;;;;32.99;22.21;100425.98;124475;1102;118201;-78
2022/06/28 11:54:46;;;;;;;3.43;2.67;;;;;;;32.88;21.56;100421.17;124299;1102;104396;-78
2022/06/28 11:57:35;;;;;;;10.33;2.70;;;;;;;33.03;22.25;100418.51;124261;1102;104393;-77
2022/06/28 12:00:17;;;;;;;3.73;2.63;;;;;;;33.08;22.25;100419.09;124273;1102;104238;-82
2022/06/28 12:03:05;;;;;;;4.30;2.53;;;;;;;33.04;22.02;100422.98;124241;1102;104250;-79
2022/06/28 12:05:42;;;;;;;5.37;2.47;;;;;;;33.00;22.88;100421.41;124287;1102;103487;-81
2022/06/28 12:08:14;;;;;;;3.13;2.40;;;;;;;33.03;22.38;100418.51;124076;1105;104485;-80
2022/06/28 12:10:57;;;;;;;9.23;3.03;;;;;;;33.03;22.21;100419.38;124244;1102;104197;-80
2022/06/28 12:13:34;;;;;;;4.23;2.47;;;;;;;33.06;21.76;100419.19;124147;1102;103147;-81
2022/06/28 12:16:12;;;;;;;4.50;2.60;;;;;;;33.11;22.16;100416.20;124366;1102;104313;-79
2022/06/28 12:18:56;;;;;;;3.53;2.50;;;;;;;33.10;21.81;100414.47;124298;1102;104435;-79
2022/06/28 12:21:29;;;;;;;4.37;2.77;;;;;;;33.14;22.56;100410.58;124379;1102;104242;-83
2022/06/28 12:24:08;;;;;;;10.07;2.87;;;;;;;33.21;22.31;100409.28;124262;1099;104261;-80
2022/06/28 12:26:43;;;;;;;3.30;2.30;;;;;;;33.25;22.50;100408.11;124449;1099;104239;-80
2022/06/28 12:29:16;;;;;;;2.80;2.40;;;;;;;33.20;21.97;100399.37;124879;1099;104191;-78
2022/06/28 12:31:57;;;;;;;2.70;2.50;;;;;;;33.19;22.13;100404.89;124481;1099;105670;-82
2022/06/28 12:34:37;;;;;;;5.27;2.90;;;;;;;33.21;22.43;100406.56;124446;1099;104335;-80
2022/06/28 12:37:15;;;;;;;8.08;2.60;;;;;;;33.26;22.21;100398.12;124554;1099;104727;-80
2022/06/28 12:39:55;;;;;;;5.00;2.77;;;;;;;33.23;22.45;100385.59;124690;1099;104499;-80
2022/06/28 12:42:39;;;;;;;5.43;2.80;;;;;;;33.21;22.36;100386.64;124896;1098;104191;-80
2022/06/28 12:45:41;;;;;;;3.83;2.70;;;;;;;33.31;22.71;100385.98;124936;1099;104169;-82
2022/06/28 12:48:18;;;;;;;77.10;9.90;;;;;;;33.41;23.07;100377.26;124868;1099;104274;-80
2022/06/28 12:50:57;;;;;;;4.40;2.57;;;;;;;33.49;22.56;100394.00;125070;1099;104332;-81